Time;durP1;ratioP1;P1;durP2;ratioP2;P2;SDS_P1;SDS_P2;PMS_P1;PMS_P2;Temp;Humidity;BMP_temperature;BMP_pressure;BME280_temperature;BME280_humidity;BME280_pressure;Samples;Min_cycle;Max_cycle;Signal;HPM_P1;HPM_P2
2022/09/14 00:00:11;;;;;;;9.45;5.70;;;;;;;;;;5055803;28;20083;-80
2022/09/14 00:02:37;;;;;;;8.10;5.03;;;;;;;;;;5059630;28;20519;-80
2022/09/14 00:05:03;;;;;;;10.18;5.80;;;;;;;;;;5062192;28;20028;-79
2022/09/14 00:07:29;;;;;;;7.82;5.55;;;;;;;;;;5067611;28;20051;-79
2022/09/14 00:09:55;;;;;;;7.05;5.03;;;;;;;;;;5062322;28;20029;-79
2022/09/14 00:12:21;;;;;;;9.80;5.65;;;;;;;;;;5056167;28;20025;-79
2022/09/14 00:14:47;;;;;;;8.35;5.20;;;;;;;;;;5051415;28;20025;-79
2022/09/14 00:17:14;;;;;;;8.95;6.07;;;;;;;;;;5056439;28;20504;-80
2022/09/14 00:19:40;;;;;;;7.53;5.25;;;;;;;;;;5055243;28;20068;-80
2022/09/14 00:22:06;;;;;;;7.63;5.22;;;;;;;;;;5054667;28;20029;-80
2022/09/14 00:24:33;;;;;;;8.35;6.03;;;;;;;;;;5052984;28;20110;-80
2022/09/14 00:27:01;;;;;;;8.55;5.65;;;;;;;;;;5053779;28;20025;-80
2022/09/14 00:29:27;;;;;;;9.13;5.88;;;;;;;;;;5058298;28;20021;-80
2022/09/14 00:31:53;;;;;;;7.93;5.15;;;;;;;;;;5054689;28;20043;-80
2022/09/14 00:34:19;;;;;;;7.75;5.28;;;;;;;;;;5057672;28;20032;-79
2022/09/14 00:36:47;;;;;;;9.18;5.85;;;;;;;;;;5059490;28;20021;-80
2022/09/14 00:39:13;;;;;;;8.10;4.97;;;;;;;;;;5058452;28;20025;-80
2022/09/14 00:41:41;;;;;;;8.27;5.07;;;;;;;;;;5056191;28;20047;-80
2022/09/14 00:44:27;;;;;;;7.72;5.40;;;;;;;;;;5057529;28;20033;-79
2022/09/14 00:46:56;;;;;;;7.50;5.20;;;;;;;;;;5057131;28;20044;-80
2022/09/14 00:49:39;;;;;;;7.80;5.70;;;;;;;;;;5056862;28;20090;-80
2022/09/14 00:52:10;;;;;;;8.70;5.30;;;;;;;;;;5055461;28;20540;-80
2022/09/14 00:54:38;;;;;;;7.68;5.10;;;;;;;;;;5056050;28;20028;-80
2022/09/14 00:57:05;;;;;;;8.00;5.53;;;;;;;;;;5054758;28;20025;-79
2022/09/14 00:59:32;;;;;;;7.78;5.05;;;;;;;;;;5054591;28;20021;-79
2022/09/14 01:01:58;;;;;;;8.70;5.40;;;;;;;;;;5054558;28;20025;-79
2022/09/14 01:04:25;;;;;;;8.43;5.18;;;;;;;;;;5044765;28;20486;-79
2022/09/14 01:07:15;;;;;;;9.05;5.28;;;;;;;;;;5044290;28;20017;-80
2022/09/14 01:10:00;;;;;;;8.02;5.38;;;;;;;;;;5057334;28;20024;-79
2022/09/14 01:12:32;;;;;;;8.30;5.50;;;;;;;;;;5041500;28;20429;-79
2022/09/14 01:15:10;;;;;;;10.88;5.57;;;;;;;;;;5056188;28;20025;-79
2022/09/14 01:17:41;;;;;;;9.95;6.13;;;;;;;;;;5064673;28;20040;-79
2022/09/14 01:20:11;;;;;;;8.32;5.35;;;;;;;;;;5065394;28;20107;-79
2022/09/14 01:22:49;;;;;;;7.70;5.28;;;;;;;;;;5046437;28;20033;-80
2022/09/14 01:25:21;;;;;;;7.70;5.55;;;;;;;;;;5053765;28;20112;-79
2022/09/14 01:27:50;;;;;;;9.23;6.30;;;;;;;;;;5059507;28;20025;-79
2022/09/14 01:30:22;;;;;;;9.10;6.30;;;;;;;;;;5058998;28;20804;-79
2022/09/14 01:33:03;;;;;;;9.52;5.35;;;;;;;;;;5039589;28;20030;-80
2022/09/14 01:35:31;;;;;;;8.27;5.63;;;;;;;;;;5043542;28;20029;-79
2022/09/14 01:37:59;;;;;;;8.98;5.75;;;;;;;;;;5059768;28;20547;-80
2022/09/14 01:40:27;;;;;;;8.10;5.50;;;;;;;;;;5053836;28;20075;-80
2022/09/14 01:42:57;;;;;;;7.97;4.95;;;;;;;;;;5034952;28;20094;-80
2022/09/14 01:45:24;;;;;;;7.20;4.93;;;;;;;;;;5040097;28;20069;-80
2022/09/14 01:47:54;;;;;;;9.00;4.70;;;;;;;;;;5062224;28;20071;-80
2022/09/14 01:50:24;;;;;;;8.30;5.18;;;;;;;;;;5065010;28;20025;-80
2022/09/14 01:53:10;;;;;;;7.90;4.95;;;;;;;;;;5064680;28;20028;-80
2022/09/14 01:55:42;;;;;;;8.00;5.50;;;;;;;;;;5046832;28;20041;-80
2022/09/14 01:58:28;;;;;;;8.93;5.10;;;;;;;;;;5063631;28;20092;-80
2022/09/14 02:00:55;;;;;;;8.40;5.10;;;;;;;;;;5056053;28;20473;-80
2022/09/14 02:03:23;;;;;;;7.60;5.20;;;;;;;;;;5054068;28;20037;-80
2022/09/14 02:05:58;;;;;;;9.65;5.97;;;;;;;;;;5053771;28;20032;-80
2022/09/14 02:08:26;;;;;;;8.48;5.65;;;;;;;;;;5053553;28;20106;-80
2022/09/14 02:10:53;;;;;;;7.78;4.68;;;;;;;;;;5050821;28;20103;-79
2022/09/14 02:13:19;;;;;;;7.72;4.93;;;;;;;;;;5035705;28;20037;-80
2022/09/14 02:15:45;;;;;;;8.63;5.40;;;;;;;;;;5056575;28;20017;-80
2022/09/14 02:18:11;;;;;;;8.20;5.35;;;;;;;;;;5057178;28;20067;-80
2022/09/14 02:20:40;;;;;;;7.45;5.20;;;;;;;;;;5057067;28;20531;-79
2022/09/14 02:23:06;;;;;;;8.15;5.03;;;;;;;;;;5057497;28;20045;-79
2022/09/14 02:25:34;;;;;;;8.50;5.18;;;;;;;;;;5056573;28;20114;-80
2022/09/14 02:27:59;;;;;;;8.10;5.22;;;;;;;;;;5064841;28;20028;-79
2022/09/14 02:30:26;;;;;;;8.43;5.30;;;;;;;;;;5055850;28;20025;-80
2022/09/14 02:33:07;;;;;;;9.02;5.30;;;;;;;;;;5056694;28;20029;-80
2022/09/14 02:35:33;;;;;;;8.43;5.45;;;;;;;;;;5058500;28;20102;-80
2022/09/14 02:38:05;;;;;;;8.38;5.38;;;;;;;;;;5058325;28;20032;-80
2022/09/14 02:40:31;;;;;;;8.63;6.10;;;;;;;;;;5057971;28;20027;-80
2022/09/14 02:43:12;;;;;;;9.95;6.32;;;;;;;;;;5057455;28;20029;-80
2022/09/14 02:45:43;;;;;;;8.88;5.53;;;;;;;;;;5056925;28;20485;-80
2022/09/14 02:48:25;;;;;;;8.57;5.78;;;;;;;;;;5057950;28;20143;-79
2022/09/14 02:50:57;;;;;;;9.63;6.50;;;;;;;;;;5057193;28;20115;-79
2022/09/14 02:53:36;;;;;;;7.70;5.53;;;;;;;;;;5051580;28;20032;-79
2022/09/14 02:56:06;;;;;;;8.73;5.47;;;;;;;;;;5057474;28;20460;-79
2022/09/14 02:58:36;;;;;;;7.75;5.60;;;;;;;;;;5056724;28;20045;-79
2022/09/14 03:01:03;;;;;;;9.70;6.03;;;;;;;;;;5053454;28;20029;-79
2022/09/14 03:03:29;;;;;;;12.80;5.30;;;;;;;;;;5051432;28;20485;-79
2022/09/14 03:05:57;;;;;;;7.85;5.70;;;;;;;;;;5059230;28;20029;-80
2022/09/14 03:08:23;;;;;;;8.25;5.93;;;;;;;;;;5059646;28;20021;-80
2022/09/14 03:10:50;;;;;;;8.35;5.82;;;;;;;;;;5057815;28;20029;-80
2022/09/14 03:13:16;;;;;;;7.93;5.50;;;;;;;;;;5039971;28;20501;-80
2022/09/14 03:15:42;;;;;;;9.02;5.80;;;;;;;;;;5053082;28;20033;-80
2022/09/14 03:18:08;;;;;;;9.32;5.80;;;;;;;;;;5059143;28;20021;-80
2022/09/14 03:20:34;;;;;;;7.90;5.05;;;;;;;;;;5059137;28;20493;-80
2022/09/14 03:23:01;;;;;;;8.52;5.28;;;;;;;;;;5047216;28;20029;-80
2022/09/14 03:25:28;;;;;;;8.95;5.80;;;;;;;;;;5057794;28;20558;-80
2022/09/14 03:27:58;;;;;;;8.43;5.90;;;;;;;;;;5058740;28;20040;-80
2022/09/14 03:30:24;;;;;;;8.85;5.28;;;;;;;;;;5058953;28;20042;-80
2022/09/14 03:32:50;;;;;;;9.65;6.25;;;;;;;;;;5046727;28;20107;-80
2022/09/14 03:35:17;;;;;;;9.23;5.95;;;;;;;;;;5059086;28;20470;-80
2022/09/14 03:37:44;;;;;;;8.82;5.63;;;;;;;;;;5056256;28;20043;-80
2022/09/14 03:40:10;;;;;;;8.45;5.45;;;;;;;;;;5047932;28;20025;-79
2022/09/14 03:42:36;;;;;;;9.68;5.90;;;;;;;;;;5044854;28;20039;-80
2022/09/14 03:45:03;;;;;;;7.78;5.78;;;;;;;;;;5054314;28;20140;-79
2022/09/14 03:47:30;;;;;;;7.85;5.15;;;;;;;;;;5057668;28;20526;-80
2022/09/14 03:49:56;;;;;;;11.40;6.00;;;;;;;;;;5052999;28;20020;-80
2022/09/14 03:52:22;;;;;;;8.07;5.78;;;;;;;;;;5056102;28;20029;-80
2022/09/14 03:54:48;;;;;;;8.35;5.80;;;;;;;;;;5057047;28;20604;-80
2022/09/14 03:57:15;;;;;;;8.63;5.65;;;;;;;;;;5055593;28;20041;-80
2022/09/14 03:59:41;;;;;;;9.13;5.75;;;;;;;;;;5057582;28;20025;-81
2022/09/14 04:02:07;;;;;;;8.55;5.35;;;;;;;;;;5057184;28;20040;-81
2022/09/14 04:04:33;;;;;;;10.15;5.93;;;;;;;;;;5058766;28;20027;-81
2022/09/14 04:06:59;;;;;;;8.48;5.53;;;;;;;;;;5044670;28;20065;-81
2022/09/14 04:09:25;;;;;;;8.50;5.65;;;;;;;;;;5048059;28;20198;-81
2022/09/14 04:11:51;;;;;;;8.93;5.95;;;;;;;;;;5056174;28;20021;-80
2022/09/14 04:14:17;;;;;;;9.45;6.00;;;;;;;;;;5057660;28;20403;-80
2022/09/14 04:16:43;;;;;;;8.57;6.13;;;;;;;;;;5057935;28;20013;-81
2022/09/14 04:19:10;;;;;;;8.95;5.80;;;;;;;;;;5057412;28;20048;-81
2022/09/14 04:21:36;;;;;;;8.30;5.70;;;;;;;;;;5057582;28;20024;-80
2022/09/14 04:24:03;;;;;;;12.18;6.38;;;;;;;;;;5058528;28;20044;-81
2022/09/14 04:26:30;;;;;;;8.18;5.80;;;;;;;;;;5053923;28;20075;-80
2022/09/14 04:28:56;;;;;;;10.98;6.80;;;;;;;;;;5054515;28;20028;-80
2022/09/14 04:31:22;;;;;;;11.07;6.55;;;;;;;;;;5055219;28;20029;-81
2022/09/14 04:33:49;;;;;;;9.20;6.45;;;;;;;;;;5064526;28;20057;-80
2022/09/14 04:36:19;;;;;;;10.63;7.63;;;;;;;;;;5060932;28;20029;-80
2022/09/14 04:38:46;;;;;;;9.15;6.05;;;;;;;;;;5050721;28;20017;-81
2022/09/14 04:41:13;;;;;;;10.82;6.70;;;;;;;;;;5064686;28;20320;-81
2022/09/14 04:43:39;;;;;;;8.93;6.00;;;;;;;;;;5064188;28;20039;-81
2022/09/14 04:46:06;;;;;;;10.82;7.65;;;;;;;;;;5059638;28;20079;-82
2022/09/14 04:48:33;;;;;;;9.70;6.18;;;;;;;;;;5054434;28;20473;-81
2022/09/14 04:51:04;;;;;;;9.80;6.38;;;;;;;;;;5054747;28;20029;-81
2022/09/14 04:53:33;;;;;;;11.07;8.10;;;;;;;;;;5041610;28;20052;-81
2022/09/14 04:56:03;;;;;;;11.00;7.20;;;;;;;;;;5045446;28;20112;-81
2022/09/14 04:58:29;;;;;;;10.75;7.22;;;;;;;;;;5064080;28;20551;-81
2022/09/14 05:01:00;;;;;;;10.00;6.85;;;;;;;;;;5061538;28;20097;-81
2022/09/14 05:03:26;;;;;;;10.82;7.55;;;;;;;;;;5056911;28;20081;-80
2022/09/14 05:05:52;;;;;;;10.85;7.60;;;;;;;;;;5058677;28;20040;-80
2022/09/14 05:08:18;;;;;;;9.15;6.32;;;;;;;;;;5040174;28;20033;-80
2022/09/14 05:10:44;;;;;;;10.02;6.65;;;;;;;;;;5056531;28;20050;-81
2022/09/14 05:13:11;;;;;;;9.50;7.05;;;;;;;;;;5058525;28;20029;-81
2022/09/14 05:15:37;;;;;;;11.13;7.00;;;;;;;;;;5059551;28;20052;-81
2022/09/14 05:18:03;;;;;;;11.63;7.47;;;;;;;;;;5056936;28;20025;-82
2022/09/14 05:20:29;;;;;;;11.20;7.22;;;;;;;;;;5054461;28;20021;-82
2022/09/14 05:22:55;;;;;;;11.18;7.60;;;;;;;;;;5060223;28;20032;-82
2022/09/14 05:25:21;;;;;;;11.90;7.22;;;;;;;;;;5057860;28;20389;-82
2022/09/14 05:27:47;;;;;;;11.30;7.70;;;;;;;;;;5056615;28;20025;-82
2022/09/14 05:30:13;;;;;;;10.60;7.63;;;;;;;;;;5060029;28;20477;-82
2022/09/14 05:32:39;;;;;;;11.68;7.53;;;;;;;;;;5057702;28;20040;-82
2022/09/14 05:35:05;;;;;;;10.20;7.38;;;;;;;;;;5054200;28;20029;-82
2022/09/14 05:37:31;;;;;;;14.50;7.10;;;;;;;;;;5053668;28;20032;-82
2022/09/14 05:39:57;;;;;;;11.48;9.10;;;;;;;;;;5053825;28;20033;-82
2022/09/14 05:42:23;;;;;;;14.48;11.50;;;;;;;;;;5055212;28;20415;-82
2022/09/14 05:44:49;;;;;;;15.15;11.77;;;;;;;;;;5055662;28;20041;-82
2022/09/14 05:47:15;;;;;;;10.38;7.60;;;;;;;;;;5045637;28;20191;-82
2022/09/14 05:49:41;;;;;;;13.68;9.20;;;;;;;;;;5045499;28;20028;-82
2022/09/14 05:52:07;;;;;;;11.18;8.00;;;;;;;;;;5055489;28;20028;-82
2022/09/14 05:54:33;;;;;;;13.60;8.10;;;;;;;;;;5054808;28;20041;-82
2022/09/14 05:56:59;;;;;;;10.80;7.35;;;;;;;;;;5057211;28;20056;-81
2022/09/14 05:59:25;;;;;;;11.20;6.85;;;;;;;;;;5060660;28;20021;-82
2022/09/14 06:01:51;;;;;;;11.23;7.22;;;;;;;;;;5060426;28;21065;-82
2022/09/14 06:04:17;;;;;;;13.48;8.18;;;;;;;;;;5058432;28;20025;-82
2022/09/14 06:06:43;;;;;;;13.23;8.02;;;;;;;;;;5058685;28;20025;-81
2022/09/14 06:09:09;;;;;;;14.15;8.10;;;;;;;;;;5058422;28;20029;-82
2022/09/14 06:11:35;;;;;;;9.82;7.05;;;;;;;;;;5058760;28;20033;-82
2022/09/14 06:14:02;;;;;;;11.48;7.63;;;;;;;;;;5059598;28;20043;-82
2022/09/14 06:16:28;;;;;;;11.00;7.85;;;;;;;;;;5054796;28;20075;-81
2022/09/14 06:18:55;;;;;;;10.25;7.35;;;;;;;;;;5040325;28;20076;-82
2022/09/14 06:21:21;;;;;;;10.00;7.57;;;;;;;;;;5060386;28;20446;-82
2022/09/14 06:23:48;;;;;;;11.05;7.40;;;;;;;;;;5059577;28;20031;-82
2022/09/14 06:26:15;;;;;;;11.35;7.60;;;;;;;;;;5056348;28;20522;-82
2022/09/14 06:28:41;;;;;;;11.65;7.65;;;;;;;;;;5043208;28;20036;-82
2022/09/14 06:31:08;;;;;;;12.90;8.05;;;;;;;;;;5059522;28;20518;-81
2022/09/14 06:33:35;;;;;;;13.52;7.50;;;;;;;;;;5060471;28;20029;-81
2022/09/14 06:36:03;;;;;;;12.57;8.50;;;;;;;;;;5056273;28;20393;-81
2022/09/14 06:38:30;;;;;;;13.02;8.05;;;;;;;;;;5054050;28;20107;-81
2022/09/14 06:40:57;;;;;;;12.45;8.52;;;;;;;;;;5054717;28;20044;-82
2022/09/14 06:43:24;;;;;;;10.70;8.07;;;;;;;;;;5058238;28;20025;-82
2022/09/14 06:45:56;;;;;;;14.40;8.50;;;;;;;;;;5054110;28;20075;-82
2022/09/14 06:48:22;;;;;;;12.88;8.85;;;;;;;;;;5052811;28;20045;-83
2022/09/14 06:50:49;;;;;;;12.90;9.05;;;;;;;;;;5034949;28;20124;-81
2022/09/14 06:53:15;;;;;;;14.13;9.63;;;;;;;;;;5041027;28;20518;-82
2022/09/14 06:55:43;;;;;;;13.35;9.75;;;;;;;;;;5053736;28;20096;-82
2022/09/14 06:58:09;;;;;;;14.50;9.68;;;;;;;;;;5052611;28;20131;-81
2022/09/14 07:00:35;;;;;;;14.75;10.02;;;;;;;;;;5061592;28;20025;-82
2022/09/14 07:03:01;;;;;;;15.32;9.32;;;;;;;;;;5063637;28;20543;-82
2022/09/14 07:05:28;;;;;;;12.52;9.02;;;;;;;;;;5061983;28;20024;-82
2022/09/14 07:07:55;;;;;;;12.32;8.68;;;;;;;;;;5060878;28;20464;-82
2022/09/14 07:10:20;;;;;;;15.27;9.90;;;;;;;;;;5062848;28;20070;-82
2022/09/14 07:12:47;;;;;;;13.80;8.98;;;;;;;;;;5062862;28;20033;-82
2022/09/14 07:15:13;;;;;;;12.75;8.95;;;;;;;;;;5059204;28;20049;-82
2022/09/14 07:17:39;;;;;;;11.63;9.32;;;;;;;;;;5060439;28;20504;-83
2022/09/14 07:20:06;;;;;;;19.23;9.10;;;;;;;;;;5062706;28;20029;-82
2022/09/14 07:22:33;;;;;;;15.98;9.02;;;;;;;;;;5061825;28;20017;-82
2022/09/14 07:24:59;;;;;;;13.55;9.95;;;;;;;;;;5061803;28;20029;-82
2022/09/14 07:27:25;;;;;;;14.95;10.02;;;;;;;;;;5061098;28;20493;-82
2022/09/14 07:29:51;;;;;;;16.73;10.45;;;;;;;;;;5061409;28;20032;-82
2022/09/14 07:32:17;;;;;;;14.52;10.05;;;;;;;;;;5061036;28;20044;-82
2022/09/14 07:34:43;;;;;;;18.38;10.88;;;;;;;;;;5062828;28;20029;-82
2022/09/14 07:37:09;;;;;;;17.50;10.95;;;;;;;;;;5063118;28;20470;-82
2022/09/14 07:39:35;;;;;;;12.80;9.20;;;;;;;;;;5063266;28;20021;-82
2022/09/14 07:42:01;;;;;;;11.48;8.55;;;;;;;;;;5061770;28;20532;-82
2022/09/14 07:44:27;;;;;;;13.05;9.02;;;;;;;;;;5061544;28;20051;-82
2022/09/14 07:46:53;;;;;;;12.98;9.30;;;;;;;;;;5061259;28;20404;-82
2022/09/14 07:49:20;;;;;;;13.48;9.98;;;;;;;;;;5060387;28;20052;-83
2022/09/14 07:51:47;;;;;;;11.50;9.73;;;;;;;;;;5060223;28;20025;-82
2022/09/14 07:54:15;;;;;;;11.65;9.20;;;;;;;;;;5066465;28;20392;-83
2022/09/14 07:56:42;;;;;;;13.75;8.80;;;;;;;;;;5064013;28;20063;-83
2022/09/14 07:59:10;;;;;;;11.95;8.48;;;;;;;;;;5066171;28;20025;-83
2022/09/14 08:01:37;;;;;;;13.60;8.52;;;;;;;;;;5066570;28;20097;-82
2022/09/14 08:04:03;;;;;;;13.68;8.88;;;;;;;;;;5066220;28;20672;-83
2022/09/14 08:06:29;;;;;;;12.05;8.55;;;;;;;;;;5065688;28;20047;-82
2022/09/14 08:08:56;;;;;;;12.18;8.80;;;;;;;;;;5064683;28;20039;-82
2022/09/14 08:11:23;;;;;;;11.63;8.32;;;;;;;;;;5062283;28;20029;-82
2022/09/14 08:13:51;;;;;;;12.40;8.90;;;;;;;;;;5062447;28;20029;-82
2022/09/14 08:16:18;;;;;;;10.40;8.48;;;;;;;;;;5061427;28;20113;-82
2022/09/14 08:18:44;;;;;;;12.35;9.23;;;;;;;;;;5062025;28;20056;-82
2022/09/14 08:21:12;;;;;;;11.35;8.70;;;;;;;;;;5062350;28;20029;-82
2022/09/14 08:23:38;;;;;;;12.80;9.02;;;;;;;;;;5064622;28;20021;-82
2022/09/14 08:26:09;;;;;;;12.93;9.48;;;;;;;;;;5068629;28;20527;-82
2022/09/14 08:28:35;;;;;;;11.90;8.57;;;;;;;;;;5046263;28;20541;-82
2022/09/14 08:31:08;;;;;;;12.48;8.68;;;;;;;;;;5065578;28;20034;-82
2022/09/14 08:33:36;;;;;;;11.93;7.90;;;;;;;;;;5043851;28;20073;-82
2022/09/14 08:36:03;;;;;;;13.43;8.77;;;;;;;;;;5051559;28;20291;-82
2022/09/14 08:38:29;;;;;;;11.18;8.45;;;;;;;;;;5047215;28;20104;-82
2022/09/14 08:40:55;;;;;;;12.15;8.43;;;;;;;;;;5042834;28;20438;-82
2022/09/14 08:43:24;;;;;;;14.07;9.43;;;;;;;;;;5052465;28;20051;-82
2022/09/14 08:45:52;;;;;;;12.77;8.20;;;;;;;;;;5061610;28;20056;-81
2022/09/14 08:48:30;;;;;;;13.93;8.45;;;;;;;;;;5062300;28;20108;-81
2022/09/14 08:50:56;;;;;;;12.88;8.07;;;;;;;;;;5069398;28;20063;-82
2022/09/14 08:53:23;;;;;;;14.75;9.05;;;;;;;;;;5077510;28;20040;-81
2022/09/14 08:55:54;;;;;;;12.63;8.38;;;;;;;;;;5060397;28;20112;-81
2022/09/14 08:58:35;;;;;;;12.23;8.88;;;;;;;;;;5060018;28;20020;-82
2022/09/14 09:01:21;;;;;;;10.93;8.65;;;;;;;;;;5058085;28;20512;-82
2022/09/14 09:03:59;;;;;;;11.48;7.82;;;;;;;;;;5059269;28;20401;-82
2022/09/14 09:06:47;;;;;;;11.27;8.13;;;;;;;;;;5059230;28;20128;-81
2022/09/14 09:09:13;;;;;;;14.15;9.35;;;;;;;;;;5077653;28;20028;-81
2022/09/14 09:11:41;;;;;;;11.15;7.72;;;;;;;;;;5056825;28;20040;-82
2022/09/14 09:14:16;;;;;;;11.32;8.15;;;;;;;;;;5056650;28;20021;-81
2022/09/14 09:16:42;;;;;;;11.20;8.18;;;;;;;;;;5058568;28;20789;-81
2022/09/14 09:19:12;;;;;;;13.38;9.05;;;;;;;;;;5058927;28;20029;-80
2022/09/14 09:21:41;;;;;;;12.60;8.95;;;;;;;;;;5060825;28;20028;-80
2022/09/14 09:24:30;;;;;;;12.77;8.70;;;;;;;;;;5060922;28;20108;-81
2022/09/14 09:26:56;;;;;;;11.05;8.00;;;;;;;;;;5061262;28;20040;-81
2022/09/14 09:29:22;;;;;;;13.35;8.85;;;;;;;;;;5042974;28;20057;-81
2022/09/14 09:31:50;;;;;;;11.27;8.18;;;;;;;;;;5048804;28;20542;-80
2022/09/14 09:34:16;;;;;;;11.65;8.43;;;;;;;;;;5077464;28;20077;-81
2022/09/14 09:36:52;;;;;;;17.65;9.10;;;;;;;;;;5062703;28;20029;-81
2022/09/14 09:39:18;;;;;;;11.27;7.65;;;;;;;;;;5062139;28;20036;-81
2022/09/14 09:41:49;;;;;;;10.25;7.72;;;;;;;;;;5059834;28;20057;-82
2022/09/14 09:44:15;;;;;;;12.63;7.85;;;;;;;;;;5060912;28;20084;-81
2022/09/14 09:46:46;;;;;;;9.77;7.90;;;;;;;;;;5054902;28;20052;-80
2022/09/14 09:49:18;;;;;;;13.45;8.40;;;;;;;;;;5048151;28;20064;-82
2022/09/14 09:51:44;;;;;;;9.65;7.43;;;;;;;;;;5054569;28;20033;-81
2022/09/14 09:54:14;;;;;;;10.18;7.60;;;;;;;;;;5054839;28;20057;-81
2022/09/14 09:57:00;;;;;;;8.23;6.75;;;;;;;;;;5053420;28;20017;-81
2022/09/14 09:59:30;;;;;;;9.35;6.72;;;;;;;;;;5059254;28;20031;-81
2022/09/14 10:02:13;;;;;;;10.77;7.40;;;;;;;;;;5073551;28;20388;-81
2022/09/14 10:04:55;;;;;;;10.82;6.68;;;;;;;;;;5068114;28;20024;-80
2022/09/14 10:07:23;;;;;;;16.20;8.00;;;;;;;;;;5075053;28;20089;-80
2022/09/14 10:10:00;;;;;;;9.93;7.68;;;;;;;;;;5037424;28;20040;-79
2022/09/14 10:12:26;;;;;;;10.85;7.90;;;;;;;;;;5056919;28;20035;-80
2022/09/14 10:15:07;;;;;;;10.90;8.65;;;;;;;;;;5059075;28;20029;-81
2022/09/14 10:17:34;;;;;;;11.60;7.30;;;;;;;;;;5050718;28;20052;-81
2022/09/14 10:20:00;;;;;;;11.15;6.90;;;;;;;;;;5071160;28;20032;-81
2022/09/14 10:22:27;;;;;;;8.98;6.88;;;;;;;;;;5061065;28;20052;-82
2022/09/14 10:24:56;;;;;;;10.70;8.00;;;;;;;;;;5058948;28;20052;-81
2022/09/14 10:27:41;;;;;;;10.52;7.65;;;;;;;;;;5057386;28;20085;-81
2022/09/14 10:30:20;;;;;;;11.35;8.38;;;;;;;;;;5056826;28;20021;-81
2022/09/14 10:32:52;;;;;;;11.70;8.05;;;;;;;;;;5056881;28;20119;-81
2022/09/14 10:35:19;;;;;;;10.23;7.32;;;;;;;;;;5060697;28;20025;-81
2022/09/14 10:37:53;;;;;;;12.10;7.63;;;;;;;;;;5062438;28;20025;-81
2022/09/14 10:40:20;;;;;;;11.65;7.63;;;;;;;;;;5056635;28;20443;-81
2022/09/14 10:43:01;;;;;;;11.10;8.43;;;;;;;;;;5059919;28;20055;-81
2022/09/14 10:45:35;;;;;;;12.63;8.20;;;;;;;;;;5059605;28;20036;-82
2022/09/14 10:48:22;;;;;;;11.13;8.50;;;;;;;;;;5051290;28;20133;-82
2022/09/14 10:50:48;;;;;;;11.88;8.55;;;;;;;;;;5057525;28;20037;-82
2022/09/14 10:53:30;;;;;;;11.80;8.93;;;;;;;;;;5062887;28;20149;-83
2022/09/14 10:56:02;;;;;;;12.50;9.88;;;;;;;;;;5056965;28;20041;-83
2022/09/14 10:58:47;;;;;;;19.00;12.35;;;;;;;;;;5055565;28;20060;-83
2022/09/14 11:01:33;;;;;;;14.18;10.65;;;;;;;;;;5062699;28;20085;-82
2022/09/14 11:04:20;;;;;;;16.50;11.55;;;;;;;;;;5053085;28;20048;-82
2022/09/14 11:07:12;;;;;;;14.18;10.38;;;;;;;;;;5069410;28;20052;-82
2022/09/14 11:09:46;;;;;;;13.05;9.07;;;;;;;;;;5067481;28;20033;-82
2022/09/14 11:12:25;;;;;;;15.23;11.10;;;;;;;;;;5066252;28;20021;-82
2022/09/14 11:14:57;;;;;;;14.25;10.05;;;;;;;;;;5065090;28;20095;-82
2022/09/14 11:17:23;;;;;;;14.13;10.25;;;;;;;;;;5069772;28;20021;-82
2022/09/14 11:19:50;;;;;;;16.85;12.23;;;;;;;;;;5064198;28;20503;-83
2022/09/14 11:22:21;;;;;;;14.48;11.23;;;;;;;;;;5064569;28;20020;-83
2022/09/14 11:24:56;;;;;;;20.10;13.10;;;;;;;;;;5057481;28;20029;-82
2022/09/14 11:27:28;;;;;;;18.02;13.55;;;;;;;;;;5050348;28;20060;-82
2022/09/14 11:30:10;;;;;;;17.05;13.75;;;;;;;;;;5060074;28;20037;-82
2022/09/14 11:32:38;;;;;;;17.73;13.90;;;;;;;;;;5063929;28;20025;-82
2022/09/14 11:35:14;;;;;;;19.25;15.35;;;;;;;;;;5063299;28;20032;-82
2022/09/14 11:37:42;;;;;;;17.52;14.05;;;;;;;;;;5062409;28;20032;-82
2022/09/14 11:40:17;;;;;;;17.40;14.15;;;;;;;;;;5060766;28;20033;-81
2022/09/14 11:42:46;;;;;;;18.58;15.93;;;;;;;;;;5059567;28;20029;-82
2022/09/14 11:45:21;;;;;;;19.55;15.27;;;;;;;;;;5051422;28;20435;-82
2022/09/14 11:47:53;;;;;;;19.08;14.00;;;;;;;;;;5060076;28;20069;-82
2022/09/14 11:50:22;;;;;;;17.15;14.35;;;;;;;;;;5060157;28;20024;-81
2022/09/14 11:52:54;;;;;;;14.75;12.40;;;;;;;;;;5062901;28;20045;-81
2022/09/14 11:55:20;;;;;;;16.57;13.00;;;;;;;;;;5056274;28;21259;-81
2022/09/14 11:57:46;;;;;;;15.50;13.20;;;;;;;;;;5080127;28;20024;-82
2022/09/14 12:00:22;;;;;;;14.98;13.25;;;;;;;;;;5067878;28;20496;-82
2022/09/14 12:03:07;;;;;;;14.63;13.13;;;;;;;;;;5071308;28;20029;-82
2022/09/14 12:05:33;;;;;;;14.48;12.82;;;;;;;;;;5057538;28;20107;-81
2022/09/14 12:08:01;;;;;;;17.40;12.68;;;;;;;;;;5043446;28;20079;-82
2022/09/14 12:10:30;;;;;;;16.63;13.32;;;;;;;;;;5046537;28;20030;-83
2022/09/14 12:13:05;;;;;;;18.77;12.75;;;;;;;;;;5055402;28;20071;-81
2022/09/14 12:15:33;;;;;;;15.50;13.85;;;;;;;;;;5040197;28;20032;-81
2022/09/14 12:18:01;;;;;;;13.27;11.77;;;;;;;;;;5051919;28;20056;-82
2022/09/14 12:20:31;;;;;;;14.27;11.63;;;;;;;;;;5050870;28;20120;-81
2022/09/14 12:23:04;;;;;;;15.68;12.43;;;;;;;;;;5050769;28;20531;-81
2022/09/14 12:25:30;;;;;;;13.18;10.52;;;;;;;;;;5055084;28;20037;-80
2022/09/14 12:27:56;;;;;;;12.10;10.80;;;;;;;;;;5045385;28;20040;-80
2022/09/14 12:30:52;;;;;;;11.90;9.77;;;;;;;;;;5039641;28;20037;-79
2022/09/14 12:33:30;;;;;;;11.75;9.13;;;;;;;;;;5058539;28;20552;-80
2022/09/14 12:36:02;;;;;;;10.80;8.68;;;;;;;;;;5060003;28;20549;-79
2022/09/14 12:38:31;;;;;;;12.23;9.25;;;;;;;;;;5056319;28;20538;-79
2022/09/14 12:41:20;;;;;;;10.13;8.90;;;;;;;;;;5051830;28;20032;-81
2022/09/14 12:43:47;;;;;;;14.02;8.55;;;;;;;;;;5042235;28;20065;-80
2022/09/14 12:46:21;;;;;;;14.07;9.90;;;;;;;;;;5053259;28;20022;-80
2022/09/14 12:48:47;;;;;;;10.35;9.05;;;;;;;;;;5061550;28;20035;-80
2022/09/14 12:51:30;;;;;;;13.43;9.55;;;;;;;;;;5061038;28;20029;-80
2022/09/14 12:54:01;;;;;;;12.30;9.50;;;;;;;;;;5058649;28;20020;-81
2022/09/14 12:56:27;;;;;;;11.00;8.53;;;;;;;;;;5055601;28;20025;-80
2022/09/14 12:58:58;;;;;;;10.70;8.00;;;;;;;;;;5064256;28;20043;-80
2022/09/14 13:01:43;;;;;;;11.93;8.70;;;;;;;;;;5061953;28;20021;-80
2022/09/14 13:04:18;;;;;;;9.25;7.95;;;;;;;;;;5051997;28;20037;-80
2022/09/14 13:06:46;;;;;;;9.80;7.88;;;;;;;;;;5050005;28;20029;-81
2022/09/14 13:09:25;;;;;;;12.10;8.00;;;;;;;;;;5060270;28;20032;-80
2022/09/14 13:11:57;;;;;;;10.82;7.53;;;;;;;;;;5050559;28;20037;-80
2022/09/14 13:14:26;;;;;;;11.15;9.02;;;;;;;;;;5042510;28;20562;-80
2022/09/14 13:16:53;;;;;;;11.35;8.45;;;;;;;;;;5043830;28;20025;-80
2022/09/14 13:19:21;;;;;;;10.40;8.43;;;;;;;;;;5059023;28;20403;-80
2022/09/14 13:21:48;;;;;;;10.05;7.93;;;;;;;;;;5058597;28;20108;-80
2022/09/14 13:24:43;;;;;;;11.77;7.78;;;;;;;;;;5053546;28;20051;-81
2022/09/14 13:27:17;;;;;;;10.32;8.07;;;;;;;;;;5043238;28;20099;-81
2022/09/14 13:29:43;;;;;;;10.45;7.47;;;;;;;;;;5041347;28;20037;-80
2022/09/14 13:32:11;;;;;;;8.80;7.53;;;;;;;;;;5043412;28;20033;-80
2022/09/14 13:34:38;;;;;;;11.45;8.43;;;;;;;;;;5044163;28;20055;-81
2022/09/14 13:37:05;;;;;;;9.75;7.90;;;;;;;;;;5052250;28;20020;-81
2022/09/14 13:39:36;;;;;;;10.57;7.88;;;;;;;;;;5061993;28;20021;-80
2022/09/14 13:42:02;;;;;;;9.18;8.07;;;;;;;;;;5056004;28;20056;-82
2022/09/14 13:44:49;;;;;;;10.00;8.35;;;;;;;;;;5055939;28;20550;-83
2022/09/14 13:47:18;;;;;;;8.27;7.47;;;;;;;;;;5056504;28;20170;-82
2022/09/14 13:49:45;;;;;;;9.45;7.57;;;;;;;;;;5058372;28;20025;-81
2022/09/14 13:52:19;;;;;;;8.88;7.90;;;;;;;;;;5058128;28;20043;-82
2022/09/14 13:54:45;;;;;;;9.15;7.80;;;;;;;;;;5056946;28;20035;-80
2022/09/14 13:57:12;;;;;;;8.68;7.38;;;;;;;;;;5059255;28;20112;-81
2022/09/14 13:59:58;;;;;;;7.85;7.05;;;;;;;;;;5058215;28;20442;-81
2022/09/14 14:02:26;;;;;;;8.65;7.57;;;;;;;;;;5058099;28;20017;-81
2022/09/14 14:04:52;;;;;;;7.60;6.53;;;;;;;;;;5059245;28;20094;-81
2022/09/14 14:07:20;;;;;;;8.27;7.15;;;;;;;;;;5056040;28;20401;-79
2022/09/14 14:09:54;;;;;;;8.93;6.20;;;;;;;;;;5055512;28;20142;-81
2022/09/14 14:12:30;;;;;;;9.65;7.53;;;;;;;;;;5062619;28;20029;-80
2022/09/14 14:15:00;;;;;;;8.18;6.68;;;;;;;;;;5056401;28;20397;-81
2022/09/14 14:17:29;;;;;;;10.32;6.85;;;;;;;;;;5056804;28;20029;-80
2022/09/14 14:19:56;;;;;;;8.77;6.57;;;;;;;;;;5056012;28;20032;-81
2022/09/14 14:22:25;;;;;;;7.88;6.43;;;;;;;;;;5066450;28;20544;-81
2022/09/14 14:24:51;;;;;;;10.77;6.03;;;;;;;;;;5055539;28;20031;-81
2022/09/14 14:27:30;;;;;;;7.57;6.07;;;;;;;;;;5039868;28;20064;-81
2022/09/14 14:29:56;;;;;;;8.18;5.88;;;;;;;;;;5065582;28;20051;-81
2022/09/14 14:32:23;;;;;;;8.90;5.80;;;;;;;;;;5037207;28;20086;-80
2022/09/14 14:34:49;;;;;;;8.80;5.55;;;;;;;;;;5054587;28;20039;-79
2022/09/14 14:37:15;;;;;;;6.88;5.45;;;;;;;;;;5049370;28;20559;-80
2022/09/14 14:39:43;;;;;;;9.93;6.30;;;;;;;;;;5048728;28;20017;-81
2022/09/14 14:42:09;;;;;;;9.07;6.25;;;;;;;;;;5065106;28;20017;-79
2022/09/14 14:44:35;;;;;;;8.80;6.13;;;;;;;;;;5054558;28;20295;-79
2022/09/14 14:47:01;;;;;;;9.75;5.95;;;;;;;;;;5054220;28;20226;-80